Aérodrome :
LOGIN :

S'inscrire | Disclaimer

   EN    FR    IT 

 










Légende :    VFR   VFR Marginal   IFR   IFR Intensif   IFR Très Intensif
Visi : 
Plafond : 
>= 8 km
>= 3000ft
5 à 8 km
1000 à 3000 ft
1500m à 5 km
500 à 1000 ft
800 à 1500m
200 à 500 ft
< 800m
< 200 ft
Symboles :   Orages  Brouillard  Fortes neiges  Fortes précipitations  Vent > 20 kt
SIGMETs :   Divers  Orages  Givrage  Turbulence  Onde Orograph.  Cendres Volcan.







- Altitude de l'aérodrome : 788 ft
- Code IATA : DCM
- Voir les cartes d'approche


LFCK - Castres-Mazamet

DERNIER METAR :
  • 191830Z AUTO 32006KT CAVOK 14/09 Q1024 NOSIG

METARs EXPIRÉS :
  • 191800Z AUTO 34008KT CAVOK 14/09 Q1023 NOSIG
  • 191730Z AUTO 36014KT CAVOK 15/08 Q1023 BECMG 29005KT
  • 191700Z AUTO 33012KT 9999 ///TCU 17/08 Q1023 BECMG NSC
  • 191630Z AUTO 31015KT CAVOK 17/07 Q1023 BECMG 29005KT
  • 191600Z AUTO 31019KT 9999 ///TCU 18/07 Q1022 TEMPO 30020G30KT BECMG BKN040

TAF TAF LFCK
Valide du 19 à 18h jusqu'au 20 à 03h UTC


191700Z 1918/2003 31008KT CAVOK
BECMG 1918/1920 29005KT
BECMG 1921/1923 VRB02KT
PROB30
TEMPO 2000/2003 4000 BR
Pas de NOTAMs connus pour ce terrain.



MET'MAP, la Météo Aéronautique d'un coup d'oeil ! - Copyright ORBIFLY Décembre 2007 - Disclaimer

ORBIFLY MET'MAP TEAM :

Programmation & Développement : Alexandra Zaïnal
Conception & Développement : Baudouin d'Aumeries
Co-Programmation & Développement : Marc-Olivier Méhu
Soutien technique & logistique : Manuel Goepfert

Contact : metmap@orbifly.com




SOURCES & CREDITS :

   NOAA